sensor_id;sensor_type;location;lat;lon;timestamp;pressure;altitude;pressure_sealevel;temperature;humidity
42859;BME280;28505;56.970;40.998;2023-07-28T00:04:05;98779.81;;;18.40;100.00
42859;BME280;28505;56.970;40.998;2023-07-28T00:09:29;98773.97;;;18.38;100.00
42859;BME280;28505;56.970;40.998;2023-07-28T00:14:52;98771.66;;;18.43;100.00
42859;BME280;28505;56.970;40.998;2023-07-28T00:20:14;98771.56;;;18.33;100.00
42859;BME280;28505;56.970;40.998;2023-07-28T00:25:36;98770.25;;;18.19;100.00
42859;BME280;28505;56.970;40.998;2023-07-28T00:30:58;98764.38;;;18.17;100.00
42859;BME280;28505;56.970;40.998;2023-07-28T00:36:20;98766.84;;;18.30;100.00
42859;BME280;28505;56.970;40.998;2023-07-28T00:41:43;98770.44;;;18.37;100.00
42859;BME280;28505;56.970;40.998;2023-07-28T00:47:05;98777.50;;;18.42;100.00
42859;BME280;28505;56.970;40.998;2023-07-28T00:52:27;98764.53;;;18.32;100.00
42859;BME280;28505;56.970;40.998;2023-07-28T00:57:50;98753.50;;;18.21;100.00
42859;BME280;28505;56.970;40.998;2023-07-28T01:03:13;98755.63;;;18.35;100.00
42859;BME280;28505;56.970;40.998;2023-07-28T01:08:42;98757.84;;;18.25;100.00
42859;BME280;28505;56.970;40.998;2023-07-28T01:14:07;98759.47;;;18.34;100.00
42859;BME280;28505;56.970;40.998;2023-07-28T01:19:30;98753.59;;;18.28;100.00
42859;BME280;28505;56.970;40.998;2023-07-28T01:30:30;98779.06;;;18.43;100.00
42859;BME280;28505;56.970;40.998;2023-07-28T01:35:53;98780.69;;;18.47;100.00
42859;BME280;28505;56.970;40.998;2023-07-28T01:41:15;98788.06;;;18.47;100.00
42859;BME280;28505;56.970;40.998;2023-07-28T01:46:38;98781.06;;;18.46;100.00
42859;BME280;28505;56.970;40.998;2023-07-28T01:52:01;98776.91;;;18.59;100.00
42859;BME280;28505;56.970;40.998;2023-07-28T01:57:23;98760.25;;;18.71;100.00
42859;BME280;28505;56.970;40.998;2023-07-28T02:02:49;98765.47;;;18.84;100.00
42859;BME280;28505;56.970;40.998;2023-07-28T02:08:12;98767.09;;;18.95;100.00
42859;BME280;28505;56.970;40.998;2023-07-28T02:13:34;98741.75;;;18.95;100.00
42859;BME280;28505;56.970;40.998;2023-07-28T02:18:57;98739.84;;;19.06;100.00
42859;BME280;28505;56.970;40.998;2023-07-28T02:24:19;98721.59;;;19.17;100.00
42859;BME280;28505;56.970;40.998;2023-07-28T02:29:41;98719.72;;;19.29;100.00
42859;BME280;28505;56.970;40.998;2023-07-28T02:35:08;98726.84;;;19.48;100.00
42859;BME280;28505;56.970;40.998;2023-07-28T02:40:32;98728.13;;;19.64;100.00
42859;BME280;28505;56.970;40.998;2023-07-28T02:45:55;98742.69;;;19.86;100.00
42859;BME280;28505;56.970;40.998;2023-07-28T02:51:17;98756.44;;;20.08;100.00
42859;BME280;28505;56.970;40.998;2023-07-28T02:56:39;98779.91;;;20.16;100.00
42859;BME280;28505;56.970;40.998;2023-07-28T03:02:05;98786.66;;;20.44;100.00
42859;BME280;28505;56.970;40.998;2023-07-28T03:07:28;98778.50;;;21.12;100.00
42859;BME280;28505;56.970;40.998;2023-07-28T03:12:56;98785.53;;;21.56;100.00
42859;BME280;28505;56.970;40.998;2023-07-28T03:18:18;98783.97;;;21.47;100.00
42859;BME280;28505;56.970;40.998;2023-07-28T03:23:41;98789.47;;;21.26;100.00
42859;BME280;28505;56.970;40.998;2023-07-28T03:29:03;98783.94;;;21.62;100.00
42859;BME280;28505;56.970;40.998;2023-07-28T03:34:27;98783.47;;;21.85;100.00
42859;BME280;28505;56.970;40.998;2023-07-28T03:39:51;98772.69;;;22.37;100.00
42859;BME280;28505;56.970;40.998;2023-07-28T03:45:18;98779.69;;;23.46;100.00
42859;BME280;28505;56.970;40.998;2023-07-28T03:50:40;98790.59;;;22.56;100.00
42859;BME280;28505;56.970;40.998;2023-07-28T03:56:03;98793.03;;;22.47;100.00
42859;BME280;28505;56.970;40.998;2023-07-28T04:01:25;98776.00;;;22.66;100.00
42859;BME280;28505;56.970;40.998;2023-07-28T04:06:48;98781.78;;;22.82;100.00
42859;BME280;28505;56.970;40.998;2023-07-28T04:12:18;98774.84;;;22.67;100.00
42859;BME280;28505;56.970;40.998;2023-07-28T04:17:41;98764.34;;;22.51;100.00
42859;BME280;28505;56.970;40.998;2023-07-28T04:23:03;98752.16;;;22.56;100.00
42859;BME280;28505;56.970;40.998;2023-07-28T04:28:31;98734.00;;;22.69;100.00
42859;BME280;28505;56.970;40.998;2023-07-28T04:33:57;98744.59;;;23.57;100.00
42859;BME280;28505;56.970;40.998;2023-07-28T04:39:30;98732.25;;;24.34;100.00
42859;BME280;28505;56.970;40.998;2023-07-28T04:44:52;98733.53;;;24.56;100.00
42859;BME280;28505;56.970;40.998;2023-07-28T04:50:14;98726.16;;;24.46;100.00
42859;BME280;28505;56.970;40.998;2023-07-28T04:56:08;98714.44;;;25.36;100.00
42859;BME280;28505;56.970;40.998;2023-07-28T05:01:30;98714.69;;;25.85;90.96
42859;BME280;28505;56.970;40.998;2023-07-28T05:06:52;98698.97;;;25.82;86.09
42859;BME280;28505;56.970;40.998;2023-07-28T05:12:14;98691.66;;;26.44;85.37
42859;BME280;28505;56.970;40.998;2023-07-28T05:17:40;98686.16;;;26.60;79.08
42859;BME280;28505;56.970;40.998;2023-07-28T05:23:25;98687.19;;;27.28;73.49
42859;BME280;28505;56.970;40.998;2023-07-28T05:28:47;98681.75;;;27.25;71.90
42859;BME280;28505;56.970;40.998;2023-07-28T05:34:10;98676.03;;;27.74;71.71
42859;BME280;28505;56.970;40.998;2023-07-28T05:39:34;98677.91;;;27.35;71.21
42859;BME280;28505;56.970;40.998;2023-07-28T05:44:56;98667.66;;;28.03;70.01
42859;BME280;28505;56.970;40.998;2023-07-28T05:50:19;98674.94;;;28.61;65.83
42859;BME280;28505;56.970;40.998;2023-07-28T05:55:41;98678.16;;;27.83;66.15
42859;BME280;28505;56.970;40.998;2023-07-28T06:01:03;98676.16;;;28.60;66.33
42859;BME280;28505;56.970;40.998;2023-07-28T06:06:51;98670.03;;;29.12;65.42
42859;BME280;28505;56.970;40.998;2023-07-28T06:12:13;98661.31;;;28.15;65.22
42859;BME280;28505;56.970;40.998;2023-07-28T06:17:38;98653.59;;;28.83;67.21
42859;BME280;28505;56.970;40.998;2023-07-28T06:23:00;98647.19;;;29.08;66.15
42859;BME280;28505;56.970;40.998;2023-07-28T06:28:23;98640.25;;;28.91;66.55
42859;BME280;28505;56.970;40.998;2023-07-28T06:33:47;98643.06;;;29.57;65.13
42859;BME280;28505;56.970;40.998;2023-07-28T06:39:10;98646.59;;;29.13;64.65
42859;BME280;28505;56.970;40.998;2023-07-28T06:44:32;98648.34;;;29.42;62.37
42859;BME280;28505;56.970;40.998;2023-07-28T06:49:54;98642.81;;;29.64;62.36
42859;BME280;28505;56.970;40.998;2023-07-28T06:55:21;98643.50;;;30.18;63.32
42859;BME280;28505;56.970;40.998;2023-07-28T07:00:43;98643.25;;;29.94;63.83
42859;BME280;28505;56.970;40.998;2023-07-28T07:06:05;98643.63;;;29.74;63.52
42859;BME280;28505;56.970;40.998;2023-07-28T07:11:27;98641.00;;;29.48;63.39
42859;BME280;28505;56.970;40.998;2023-07-28T07:16:50;98638.28;;;29.89;60.47
42859;BME280;28505;56.970;40.998;2023-07-28T07:22:12;98638.63;;;29.91;63.74
42859;BME280;28505;56.970;40.998;2023-07-28T07:27:34;98647.56;;;30.26;60.70
42859;BME280;28505;56.970;40.998;2023-07-28T07:32:56;98652.31;;;29.85;62.46
42859;BME280;28505;56.970;40.998;2023-07-28T07:38:18;98650.38;;;30.35;62.66
42859;BME280;28505;56.970;40.998;2023-07-28T07:43:41;98658.66;;;29.85;61.04
42859;BME280;28505;56.970;40.998;2023-07-28T07:49:03;98676.84;;;30.08;61.49
42859;BME280;28505;56.970;40.998;2023-07-28T07:54:27;98713.44;;;29.41;70.78
42859;BME280;28505;56.970;40.998;2023-07-28T07:59:49;98705.56;;;29.83;62.21
42859;BME280;28505;56.970;40.998;2023-07-28T08:05:11;98696.00;;;29.84;63.55
42859;BME280;28505;56.970;40.998;2023-07-28T08:10:33;98680.47;;;29.65;65.94
42859;BME280;28505;56.970;40.998;2023-07-28T08:15:55;98669.03;;;29.94;68.48
42859;BME280;28505;56.970;40.998;2023-07-28T08:21:18;98679.91;;;30.42;61.01
42859;BME280;28505;56.970;40.998;2023-07-28T08:26:39;98667.94;;;30.23;62.90
42859;BME280;28505;56.970;40.998;2023-07-28T08:32:02;98663.44;;;30.75;59.63
42859;BME280;28505;56.970;40.998;2023-07-28T08:37:24;98663.63;;;30.81;59.30
42859;BME280;28505;56.970;40.998;2023-07-28T08:42:46;98657.97;;;29.72;65.94
42859;BME280;28505;56.970;40.998;2023-07-28T08:48:09;98654.59;;;30.49;63.77
42859;BME280;28505;56.970;40.998;2023-07-28T08:53:32;98655.09;;;30.75;61.68
42859;BME280;28505;56.970;40.998;2023-07-28T08:58:59;98652.06;;;30.32;57.53
42859;BME280;28505;56.970;40.998;2023-07-28T09:04:21;98681.50;;;30.70;58.86
42859;BME280;28505;56.970;40.998;2023-07-28T09:09:44;98664.25;;;30.94;57.06
42859;BME280;28505;56.970;40.998;2023-07-28T09:15:08;98656.84;;;30.91;57.11
42859;BME280;28505;56.970;40.998;2023-07-28T09:20:35;98655.50;;;30.46;60.38
42859;BME280;28505;56.970;40.998;2023-07-28T09:26:01;98636.00;;;30.27;61.20
42859;BME280;28505;56.970;40.998;2023-07-28T09:31:30;98625.97;;;30.30;54.40
42859;BME280;28505;56.970;40.998;2023-07-28T09:36:55;98613.94;;;30.61;52.74
42859;BME280;28505;56.970;40.998;2023-07-28T09:42:18;98613.03;;;30.54;53.12
42859;BME280;28505;56.970;40.998;2023-07-28T09:47:40;98621.38;;;30.73;54.67
42859;BME280;28505;56.970;40.998;2023-07-28T09:53:08;98633.75;;;30.72;55.08
42859;BME280;28505;56.970;40.998;2023-07-28T09:58:33;98629.22;;;30.47;54.67
42859;BME280;28505;56.970;40.998;2023-07-28T10:04:00;98636.63;;;30.41;55.79
42859;BME280;28505;56.970;40.998;2023-07-28T10:09:28;98647.16;;;30.46;54.93
42859;BME280;28505;56.970;40.998;2023-07-28T10:15:02;98643.16;;;30.56;52.33
42859;BME280;28505;56.970;40.998;2023-07-28T10:26:00;98656.72;;;30.36;56.94
42859;BME280;28505;56.970;40.998;2023-07-28T10:31:29;98651.00;;;29.99;58.10
42859;BME280;28505;56.970;40.998;2023-07-28T10:36:58;98644.88;;;30.72;56.06
42859;BME280;28505;56.970;40.998;2023-07-28T10:42:20;98646.72;;;30.66;55.41
42859;BME280;28505;56.970;40.998;2023-07-28T10:47:42;98660.75;;;30.53;57.28
42859;BME280;28505;56.970;40.998;2023-07-28T10:53:10;98655.53;;;30.55;50.97
42859;BME280;28505;56.970;40.998;2023-07-28T10:58:33;98647.25;;;30.24;56.41
42859;BME280;28505;56.970;40.998;2023-07-28T11:03:57;98649.31;;;30.42;56.25
42859;BME280;28505;56.970;40.998;2023-07-28T11:09:27;98643.97;;;30.16;57.87
42859;BME280;28505;56.970;40.998;2023-07-28T11:14:49;98645.88;;;30.87;50.71
42859;BME280;28505;56.970;40.998;2023-07-28T11:20:19;98637.34;;;31.18;49.51
42859;BME280;28505;56.970;40.998;2023-07-28T11:25:42;98649.41;;;31.06;53.91
42859;BME280;28505;56.970;40.998;2023-07-28T11:31:07;98637.91;;;30.58;52.81
42859;BME280;28505;56.970;40.998;2023-07-28T11:36:30;98636.22;;;30.70;53.45
42859;BME280;28505;56.970;40.998;2023-07-28T11:41:56;98643.00;;;30.60;51.66
42859;BME280;28505;56.970;40.998;2023-07-28T11:47:21;98638.34;;;30.47;56.22
42859;BME280;28505;56.970;40.998;2023-07-28T11:52:43;98636.38;;;30.75;54.97
42859;BME280;28505;56.970;40.998;2023-07-28T11:58:06;98615.69;;;30.86;53.07
42859;BME280;28505;56.970;40.998;2023-07-28T12:03:30;98628.78;;;30.48;51.55
42859;BME280;28505;56.970;40.998;2023-07-28T12:09:04;98619.56;;;30.88;47.97
42859;BME280;28505;56.970;40.998;2023-07-28T12:14:34;98607.59;;;30.32;50.41
42859;BME280;28505;56.970;40.998;2023-07-28T12:20:04;98636.09;;;30.83;49.41
42859;BME280;28505;56.970;40.998;2023-07-28T12:25:39;98618.75;;;30.01;52.96
42859;BME280;28505;56.970;40.998;2023-07-28T12:31:01;98617.59;;;29.80;53.57
42859;BME280;28505;56.970;40.998;2023-07-28T12:36:24;98618.16;;;30.06;51.09
42859;BME280;28505;56.970;40.998;2023-07-28T12:42:07;98619.00;;;30.35;50.02
42859;BME280;28505;56.970;40.998;2023-07-28T12:47:33;98612.38;;;30.32;50.75
42859;BME280;28505;56.970;40.998;2023-07-28T12:52:58;98625.91;;;30.89;49.90
42859;BME280;28505;56.970;40.998;2023-07-28T12:58:34;98611.50;;;30.72;46.16
42859;BME280;28505;56.970;40.998;2023-07-28T13:03:59;98608.59;;;30.85;47.66
42859;BME280;28505;56.970;40.998;2023-07-28T13:09:21;98608.28;;;30.15;49.75
42859;BME280;28505;56.970;40.998;2023-07-28T13:14:46;98597.41;;;30.29;53.41
42859;BME280;28505;56.970;40.998;2023-07-28T13:20:08;98600.34;;;29.95;54.55
42859;BME280;28505;56.970;40.998;2023-07-28T13:25:31;98598.31;;;29.86;53.46
42859;BME280;28505;56.970;40.998;2023-07-28T13:30:53;98585.56;;;30.07;53.46
42859;BME280;28505;56.970;40.998;2023-07-28T13:36:18;98600.78;;;29.84;55.98
42859;BME280;28505;56.970;40.998;2023-07-28T13:41:40;98590.63;;;29.90;53.76
42859;BME280;28505;56.970;40.998;2023-07-28T13:47:02;98587.97;;;29.86;54.15
42859;BME280;28505;56.970;40.998;2023-07-28T13:52:25;98585.06;;;28.71;55.38
42859;BME280;28505;56.970;40.998;2023-07-28T13:57:49;98584.28;;;28.49;58.04
42859;BME280;28505;56.970;40.998;2023-07-28T14:03:11;98578.78;;;28.10;60.25
42859;BME280;28505;56.970;40.998;2023-07-28T14:08:36;98572.84;;;28.81;57.03
42859;BME280;28505;56.970;40.998;2023-07-28T14:14:01;98569.63;;;28.48;59.97
42859;BME280;28505;56.970;40.998;2023-07-28T14:19:23;98556.00;;;29.20;57.31
42859;BME280;28505;56.970;40.998;2023-07-28T14:24:46;98574.47;;;28.57;61.70
42859;BME280;28505;56.970;40.998;2023-07-28T14:30:09;98570.53;;;28.32;62.83
42859;BME280;28505;56.970;40.998;2023-07-28T14:35:31;98575.47;;;28.03;65.58
42859;BME280;28505;56.970;40.998;2023-07-28T14:40:53;98567.66;;;28.70;64.25
42859;BME280;28505;56.970;40.998;2023-07-28T14:46:16;98575.66;;;28.21;65.70
42859;BME280;28505;56.970;40.998;2023-07-28T14:51:38;98581.22;;;28.08;68.61
42859;BME280;28505;56.970;40.998;2023-07-28T14:57:00;98568.59;;;27.94;76.20
42859;BME280;28505;56.970;40.998;2023-07-28T15:02:23;98620.41;;;27.14;86.98
42859;BME280;28505;56.970;40.998;2023-07-28T15:07:47;98626.06;;;24.56;100.00
42859;BME280;28505;56.970;40.998;2023-07-28T15:13:09;98603.63;;;24.77;100.00
42859;BME280;28505;56.970;40.998;2023-07-28T15:18:32;98595.28;;;23.83;100.00
42859;BME280;28505;56.970;40.998;2023-07-28T15:23:54;98594.84;;;24.63;100.00
42859;BME280;28505;56.970;40.998;2023-07-28T15:29:25;98572.50;;;25.57;100.00
42859;BME280;28505;56.970;40.998;2023-07-28T15:34:47;98573.88;;;25.49;100.00
42859;BME280;28505;56.970;40.998;2023-07-28T15:40:09;98603.75;;;25.70;100.00
42859;BME280;28505;56.970;40.998;2023-07-28T15:45:32;98556.63;;;25.05;100.00
42859;BME280;28505;56.970;40.998;2023-07-28T15:50:55;98537.91;;;24.56;100.00
42859;BME280;28505;56.970;40.998;2023-07-28T15:56:17;98541.19;;;24.24;100.00
42859;BME280;28505;56.970;40.998;2023-07-28T16:01:40;98542.34;;;23.49;100.00
42859;BME280;28505;56.970;40.998;2023-07-28T16:07:02;98541.28;;;23.66;100.00
42859;BME280;28505;56.970;40.998;2023-07-28T16:12:27;98586.81;;;23.74;100.00
42859;BME280;28505;56.970;40.998;2023-07-28T16:17:49;98596.63;;;23.45;100.00
42859;BME280;28505;56.970;40.998;2023-07-28T16:23:14;98594.66;;;23.11;100.00
42859;BME280;28505;56.970;40.998;2023-07-28T16:28:36;98592.91;;;23.24;100.00
42859;BME280;28505;56.970;40.998;2023-07-28T16:33:59;98582.94;;;23.07;100.00
42859;BME280;28505;56.970;40.998;2023-07-28T16:39:21;98589.72;;;22.95;100.00
42859;BME280;28505;56.970;40.998;2023-07-28T16:44:45;98623.22;;;22.83;100.00
42859;BME280;28505;56.970;40.998;2023-07-28T16:50:07;98645.97;;;22.83;100.00
42859;BME280;28505;56.970;40.998;2023-07-28T16:55:30;98724.69;;;23.04;100.00
42859;BME280;28505;56.970;40.998;2023-07-28T17:00:52;98723.41;;;23.16;100.00
42859;BME280;28505;56.970;40.998;2023-07-28T17:06:14;98735.31;;;22.54;100.00
42859;BME280;28505;56.970;40.998;2023-07-28T17:11:36;98712.50;;;21.97;100.00
42859;BME280;28505;56.970;40.998;2023-07-28T17:16:59;98709.56;;;21.45;100.00
42859;BME280;28505;56.970;40.998;2023-07-28T17:22:21;98714.66;;;21.18;100.00
42859;BME280;28505;56.970;40.998;2023-07-28T17:27:43;98717.47;;;21.00;100.00
42859;BME280;28505;56.970;40.998;2023-07-28T17:33:06;98728.03;;;20.80;100.00
42859;BME280;28505;56.970;40.998;2023-07-28T17:38:28;98731.16;;;20.72;100.00
42859;BME280;28505;56.970;40.998;2023-07-28T17:43:50;98706.09;;;20.41;100.00
42859;BME280;28505;56.970;40.998;2023-07-28T17:49:12;98706.09;;;20.34;100.00
42859;BME280;28505;56.970;40.998;2023-07-28T17:54:35;98710.38;;;20.28;100.00
42859;BME280;28505;56.970;40.998;2023-07-28T17:59:58;98717.38;;;20.22;100.00
42859;BME280;28505;56.970;40.998;2023-07-28T18:05:20;98722.03;;;20.07;100.00
42859;BME280;28505;56.970;40.998;2023-07-28T18:10:44;98743.44;;;19.80;100.00
42859;BME280;28505;56.970;40.998;2023-07-28T18:16:06;98741.50;;;19.87;100.00
42859;BME280;28505;56.970;40.998;2023-07-28T18:21:31;98732.47;;;19.73;100.00
42859;BME280;28505;56.970;40.998;2023-07-28T18:26:54;98726.91;;;19.58;100.00
42859;BME280;28505;56.970;40.998;2023-07-28T18:32:16;98726.41;;;19.42;100.00
42859;BME280;28505;56.970;40.998;2023-07-28T18:37:39;98737.69;;;19.30;100.00
42859;BME280;28505;56.970;40.998;2023-07-28T18:43:02;98752.06;;;19.20;100.00
42859;BME280;28505;56.970;40.998;2023-07-28T18:48:25;98732.53;;;19.17;100.00
42859;BME280;28505;56.970;40.998;2023-07-28T18:53:47;98748.75;;;18.92;100.00
42859;BME280;28505;56.970;40.998;2023-07-28T18:59:13;98753.38;;;18.85;100.00
42859;BME280;28505;56.970;40.998;2023-07-28T19:04:35;98758.78;;;18.78;100.00
42859;BME280;28505;56.970;40.998;2023-07-28T19:09:58;98756.84;;;18.82;100.00
42859;BME280;28505;56.970;40.998;2023-07-28T19:15:20;98783.47;;;18.51;100.00
42859;BME280;28505;56.970;40.998;2023-07-28T19:21:02;98794.06;;;18.60;100.00
42859;BME280;28505;56.970;40.998;2023-07-28T19:26:24;98792.81;;;18.54;100.00
42859;BME280;28505;56.970;40.998;2023-07-28T19:31:47;98805.66;;;18.49;100.00
42859;BME280;28505;56.970;40.998;2023-07-28T19:37:09;98809.44;;;18.38;100.00
42859;BME280;28505;56.970;40.998;2023-07-28T19:42:31;98806.44;;;18.50;100.00
42859;BME280;28505;56.970;40.998;2023-07-28T19:47:53;98808.09;;;18.24;100.00
42859;BME280;28505;56.970;40.998;2023-07-28T19:53:15;98807.47;;;18.35;100.00
42859;BME280;28505;56.970;40.998;2023-07-28T19:58:38;98801.56;;;18.33;100.00
42859;BME280;28505;56.970;40.998;2023-07-28T20:04:00;98795.16;;;18.52;100.00
42859;BME280;28505;56.970;40.998;2023-07-28T20:09:22;98803.03;;;18.60;100.00
42859;BME280;28505;56.970;40.998;2023-07-28T20:14:48;98810.03;;;18.58;100.00
42859;BME280;28505;56.970;40.998;2023-07-28T20:26:17;98840.34;;;18.15;100.00
42859;BME280;28505;56.970;40.998;2023-07-28T20:31:39;98838.13;;;17.94;100.00
42859;BME280;28505;56.970;40.998;2023-07-28T20:37:01;98846.78;;;18.00;100.00
42859;BME280;28505;56.970;40.998;2023-07-28T20:42:23;98839.59;;;17.88;100.00
42859;BME280;28505;56.970;40.998;2023-07-28T20:47:45;98859.97;;;17.98;100.00
42859;BME280;28505;56.970;40.998;2023-07-28T20:53:08;98860.66;;;17.91;100.00
42859;BME280;28505;56.970;40.998;2023-07-28T20:58:30;98877.75;;;18.15;100.00
42859;BME280;28505;56.970;40.998;2023-07-28T21:03:53;98898.31;;;18.09;100.00
42859;BME280;28505;56.970;40.998;2023-07-28T21:09:15;98889.84;;;18.17;100.00
42859;BME280;28505;56.970;40.998;2023-07-28T21:14:40;98901.75;;;18.32;100.00
42859;BME280;28505;56.970;40.998;2023-07-28T21:20:03;98951.22;;;18.31;100.00
42859;BME280;28505;56.970;40.998;2023-07-28T21:25:26;98957.53;;;18.35;100.00
42859;BME280;28505;56.970;40.998;2023-07-28T21:30:48;98934.03;;;18.60;100.00
42859;BME280;28505;56.970;40.998;2023-07-28T21:36:10;98938.00;;;18.66;100.00
42859;BME280;28505;56.970;40.998;2023-07-28T21:41:33;98907.88;;;18.56;100.00
42859;BME280;28505;56.970;40.998;2023-07-28T21:46:55;98901.34;;;18.64;100.00
42859;BME280;28505;56.970;40.998;2023-07-28T21:52:17;98911.56;;;18.70;100.00
42859;BME280;28505;56.970;40.998;2023-07-28T21:57:41;98929.81;;;18.66;100.00
42859;BME280;28505;56.970;40.998;2023-07-28T22:03:07;98923.97;;;18.64;100.00
42859;BME280;28505;56.970;40.998;2023-07-28T22:08:29;98923.78;;;18.80;100.00
42859;BME280;28505;56.970;40.998;2023-07-28T22:13:53;98932.78;;;18.81;100.00
42859;BME280;28505;56.970;40.998;2023-07-28T22:19:15;98933.91;;;18.80;100.00
42859;BME280;28505;56.970;40.998;2023-07-28T22:24:37;98930.44;;;18.83;100.00
42859;BME280;28505;56.970;40.998;2023-07-28T22:30:00;98927.13;;;18.70;100.00
42859;BME280;28505;56.970;40.998;2023-07-28T22:35:26;98932.72;;;18.77;100.00
42859;BME280;28505;56.970;40.998;2023-07-28T22:40:48;98912.53;;;18.85;100.00
42859;BME280;28505;56.970;40.998;2023-07-28T22:46:10;98918.69;;;18.79;100.00
42859;BME280;28505;56.970;40.998;2023-07-28T22:51:33;98921.00;;;18.77;100.00
42859;BME280;28505;56.970;40.998;2023-07-28T22:56:56;98922.91;;;18.73;100.00
42859;BME280;28505;56.970;40.998;2023-07-28T23:02:18;98917.88;;;18.75;100.00
42859;BME280;28505;56.970;40.998;2023-07-28T23:07:40;98927.13;;;18.70;100.00
42859;BME280;28505;56.970;40.998;2023-07-28T23:13:03;98919.22;;;18.58;100.00
42859;BME280;28505;56.970;40.998;2023-07-28T23:18:26;98911.31;;;18.49;100.00
42859;BME280;28505;56.970;40.998;2023-07-28T23:23:48;98913.25;;;18.48;100.00
42859;BME280;28505;56.970;40.998;2023-07-28T23:29:11;98918.16;;;18.36;100.00
42859;BME280;28505;56.970;40.998;2023-07-28T23:34:33;98922.78;;;18.32;100.00
42859;BME280;28505;56.970;40.998;2023-07-28T23:39:55;98928.69;;;18.37;100.00
42859;BME280;28505;56.970;40.998;2023-07-28T23:45:17;98922.88;;;18.39;100.00
42859;BME280;28505;56.970;40.998;2023-07-28T23:50:39;98923.97;;;18.34;100.00
42859;BME280;28505;56.970;40.998;2023-07-28T23:56:02;98915.03;;;18.37;100.00
